createdAt,value
2017-08-19T00:00:28.789Z,98.30
2017-08-19T00:02:54.850Z,98.30
2017-08-19T00:05:21.656Z,98.20
2017-08-19T00:07:47.695Z,98.20
2017-08-19T00:10:13.785Z,98.30
2017-08-19T00:12:39.822Z,98.30
2017-08-19T00:15:05.882Z,98.10
2017-08-19T00:17:31.917Z,98.20
2017-08-19T00:19:57.984Z,98.30
2017-08-19T00:22:24.021Z,97.90
2017-08-19T00:24:50.086Z,98.20
2017-08-19T00:27:16.129Z,98.00
2017-08-19T00:29:42.185Z,97.90
2017-08-19T00:32:08.964Z,98.00
2017-08-19T00:34:35.031Z,98.00
2017-08-19T00:37:01.078Z,98.20
2017-08-19T00:39:27.133Z,98.20
2017-08-19T00:41:53.170Z,98.30
2017-08-19T00:44:19.222Z,98.40
2017-08-19T00:46:45.273Z,98.30
2017-08-19T00:49:12.069Z,98.30
2017-08-19T00:51:38.130Z,98.30
2017-08-19T00:54:04.189Z,98.30
2017-08-19T00:56:30.233Z,98.20
2017-08-19T00:58:57.033Z,98.10
2017-08-19T01:01:23.082Z,98.10
2017-08-19T01:03:49.137Z,98.10
2017-08-19T01:06:15.213Z,98.00
2017-08-19T01:11:32.470Z,97.70
2017-08-19T01:13:58.529Z,97.70
2017-08-19T01:16:24.581Z,97.70
2017-08-19T01:18:50.649Z,97.70
2017-08-19T01:21:16.713Z,97.60
2017-08-19T01:23:42.786Z,97.70
2017-08-19T01:26:21.110Z,97.60
2017-08-19T01:28:47.205Z,97.80
2017-08-19T01:31:13.234Z,97.70
2017-08-19T01:33:39.280Z,97.80
2017-08-19T01:36:05.333Z,97.80
2017-08-19T01:38:31.428Z,97.70
2017-08-19T01:40:57.468Z,97.70
2017-08-19T01:43:23.510Z,97.80
2017-08-19T01:45:49.923Z,97.70
2017-08-19T01:48:15.977Z,97.70
2017-08-19T01:50:42.028Z,97.80
2017-08-19T01:53:08.056Z,97.80
2017-08-19T01:55:34.132Z,97.80
2017-08-19T01:58:00.205Z,97.90
2017-08-19T02:00:26.239Z,98.00
2017-08-19T02:02:52.283Z,97.90
2017-08-19T02:05:18.356Z,97.90
2017-08-19T02:07:44.393Z,97.90
2017-08-19T02:10:10.436Z,98.00
2017-08-19T02:12:36.509Z,98.00
2017-08-19T02:15:02.578Z,98.00
2017-08-19T02:17:28.655Z,98.00
2017-08-19T02:19:54.717Z,98.00
2017-08-19T02:22:20.769Z,97.90
2017-08-19T02:24:46.803Z,98.30
2017-08-19T02:27:12.872Z,98.10
2017-08-19T02:29:38.931Z,98.10
2017-08-19T02:34:37.975Z,98.00
2017-08-19T02:37:04.040Z,98.00
2017-08-19T02:39:30.841Z,98.10
2017-08-19T02:41:56.904Z,98.10
2017-08-19T02:44:22.933Z,98.10
2017-08-19T02:46:49.134Z,98.50
2017-08-19T02:49:15.186Z,98.10
2017-08-19T02:51:41.254Z,98.20
2017-08-19T02:54:07.300Z,98.10
2017-08-19T02:56:33.373Z,98.00
2017-08-19T02:58:59.422Z,98.20
2017-08-19T03:01:25.477Z,98.10
2017-08-19T03:03:52.285Z,98.10
2017-08-19T03:06:18.342Z,98.10
2017-08-19T03:08:44.394Z,98.10
2017-08-19T03:11:10.450Z,98.00
2017-08-19T03:13:36.513Z,98.10
2017-08-19T03:16:02.564Z,98.10
2017-08-19T03:18:28.648Z,98.10
2017-08-19T03:20:54.734Z,98.20
2017-08-19T03:23:20.789Z,98.10
2017-08-19T03:25:46.813Z,98.10
2017-08-19T03:28:12.862Z,98.10
2017-08-19T03:30:38.905Z,98.10
2017-08-19T03:33:04.948Z,98.10
2017-08-19T03:35:30.995Z,98.10
2017-08-19T03:37:57.062Z,98.20
2017-08-19T03:40:23.102Z,98.20
2017-08-19T03:42:49.158Z,98.20
2017-08-19T03:45:15.205Z,98.30
2017-08-19T03:47:41.271Z,98.30
2017-08-19T03:50:07.331Z,98.20
2017-08-19T03:52:33.375Z,98.20
2017-08-19T03:54:59.434Z,98.30
2017-08-19T03:57:26.249Z,98.30
2017-08-19T03:59:52.292Z,98.30
2017-08-19T04:02:18.368Z,98.40
2017-08-19T04:04:45.168Z,98.40
2017-08-19T04:07:11.228Z,98.20
2017-08-19T04:09:37.278Z,98.20
2017-08-19T04:12:03.335Z,98.10
2017-08-19T04:14:29.372Z,98.20
2017-08-19T04:16:55.415Z,98.10
2017-08-19T04:19:21.484Z,98.00
2017-08-19T04:21:47.537Z,98.00
2017-08-19T04:24:13.582Z,97.90
2017-08-19T04:26:40.382Z,97.90
2017-08-19T04:29:06.452Z,97.90
2017-08-19T04:31:32.513Z,97.80
2017-08-19T04:33:58.558Z,97.90
2017-08-19T04:36:24.628Z,98.00
2017-08-19T04:38:50.681Z,97.90
2017-08-19T04:41:17.478Z,98.00
2017-08-19T04:43:43.513Z,97.90
2017-08-19T04:46:10.340Z,97.90
2017-08-19T04:48:37.128Z,98.00
2017-08-19T04:51:03.215Z,97.90
2017-08-19T04:53:29.264Z,97.80
2017-08-19T04:55:55.293Z,97.80
2017-08-19T04:58:21.364Z,97.90
2017-08-19T05:00:47.394Z,97.90
2017-08-19T05:03:13.462Z,97.80
2017-08-19T05:05:39.498Z,97.80
2017-08-19T05:08:05.553Z,97.70
2017-08-19T05:10:31.594Z,97.60
2017-08-19T05:12:58.478Z,97.70
2017-08-19T05:15:24.523Z,97.60
2017-08-19T05:17:50.580Z,97.60
2017-08-19T05:20:16.643Z,97.40
2017-08-19T05:22:42.692Z,97.40
2017-08-19T05:25:08.753Z,97.40
2017-08-19T05:27:35.549Z,97.50
2017-08-19T05:30:01.610Z,97.50
2017-08-19T05:32:27.655Z,97.40
2017-08-19T05:34:53.708Z,97.20
2017-08-19T05:37:20.488Z,97.20
2017-08-19T05:39:46.541Z,96.90
2017-08-19T05:42:12.572Z,97.10
2017-08-19T05:44:38.644Z,96.90
2017-08-19T05:47:04.679Z,96.90
2017-08-19T05:49:31.482Z,96.80
2017-08-19T05:51:57.545Z,96.80
2017-08-19T05:54:23.574Z,96.90
2017-08-19T05:56:49.617Z,96.60
2017-08-19T05:59:15.666Z,96.40
2017-08-19T06:01:41.734Z,96.20
2017-08-19T06:04:07.785Z,96.00
2017-08-19T06:06:33.850Z,96.20
2017-08-19T06:08:59.902Z,95.70
2017-08-19T06:11:26.713Z,95.50
2017-08-19T06:13:52.757Z,95.50
2017-08-19T06:16:18.804Z,95.40
2017-08-19T06:18:44.853Z,95.50
2017-08-19T06:21:10.921Z,94.90
2017-08-19T06:23:36.961Z,94.80
2017-08-19T06:26:03.029Z,94.60
2017-08-19T06:28:29.073Z,94.50
2017-08-19T06:30:55.129Z,94.40
2017-08-19T06:33:21.211Z,94.30
2017-08-19T06:35:47.254Z,94.30
2017-08-19T06:38:13.293Z,94.00
2017-08-19T06:40:39.351Z,94.20
2017-08-19T06:43:06.143Z,94.40
2017-08-19T06:45:32.217Z,94.10
2017-08-19T06:47:58.296Z,94.10
2017-08-19T06:50:24.325Z,94.30
2017-08-19T06:52:51.123Z,94.00
2017-08-19T06:55:17.172Z,94.00
2017-08-19T06:57:43.247Z,93.40
2017-08-19T07:00:12.737Z,93.30
2017-08-19T07:02:38.800Z,93.50
2017-08-19T07:05:04.852Z,93.00
2017-08-19T07:07:30.977Z,93.00
2017-08-19T07:09:57.036Z,92.90
2017-08-19T07:12:23.094Z,92.80
2017-08-19T07:14:49.118Z,93.30
2017-08-19T07:17:15.919Z,92.40
2017-08-19T07:19:41.975Z,92.40
2017-08-19T07:22:15.041Z,92.40
2017-08-19T07:24:41.065Z,92.70
2017-08-19T07:27:07.118Z,91.90
2017-08-19T07:29:33.200Z,91.60
2017-08-19T07:31:59.290Z,91.00
2017-08-19T07:34:25.320Z,91.60
2017-08-19T07:36:51.401Z,91.20
2017-08-19T07:39:18.186Z,91.00
2017-08-19T07:41:44.208Z,91.00
2017-08-19T07:44:10.237Z,90.10
2017-08-19T07:46:36.288Z,90.90
2017-08-19T07:49:02.379Z,90.50
2017-08-19T07:51:28.417Z,90.10
2017-08-19T07:53:54.484Z,90.10
2017-08-19T07:56:20.502Z,88.10
2017-08-19T07:58:46.617Z,88.70
2017-08-19T08:01:13.392Z,88.40
2017-08-19T08:03:39.449Z,88.40
2017-08-19T08:06:06.221Z,89.00
2017-08-19T08:08:32.313Z,88.10
2017-08-19T08:10:58.358Z,88.50
2017-08-19T08:13:24.410Z,89.90
2017-08-19T08:15:51.186Z,88.60
2017-08-19T08:18:17.230Z,88.60
2017-08-19T08:20:43.285Z,87.70
2017-08-19T08:23:09.381Z,85.30
2017-08-19T08:25:35.461Z,85.00
2017-08-19T08:28:01.518Z,86.60
2017-08-19T08:30:27.575Z,85.10
2017-08-19T08:32:53.659Z,82.70
2017-08-19T08:35:19.697Z,82.80
2017-08-19T08:37:45.765Z,81.80
2017-08-19T08:40:11.820Z,81.70
2017-08-19T08:42:37.921Z,82.00
2017-08-19T08:45:03.972Z,82.70
2017-08-19T08:47:30.795Z,81.40
2017-08-19T08:49:57.643Z,80.10
2017-08-19T08:52:24.439Z,80.10
2017-08-19T08:54:50.485Z,80.10
2017-08-19T08:57:16.558Z,81.60
2017-08-19T08:59:42.593Z,81.00
2017-08-19T09:02:08.637Z,80.20
2017-08-19T09:04:34.845Z,80.30
2017-08-19T09:07:00.951Z,79.00
2017-08-19T09:09:28.271Z,79.50
2017-08-19T09:11:54.331Z,77.50
2017-08-19T09:14:20.787Z,77.10
2017-08-19T09:16:46.852Z,77.40
2017-08-19T09:19:12.898Z,76.90
2017-08-19T09:21:38.967Z,76.60
2017-08-19T09:24:05.028Z,76.00
2017-08-19T09:26:31.330Z,75.50
2017-08-19T09:28:57.421Z,76.30
2017-08-19T09:31:23.490Z,76.70
2017-08-19T09:33:49.542Z,75.00
2017-08-19T09:36:15.574Z,73.30
2017-08-19T09:38:41.621Z,72.50
2017-08-19T09:41:08.382Z,73.30
2017-08-19T09:43:34.413Z,73.30
2017-08-19T09:46:00.626Z,71.80
2017-08-19T09:48:26.678Z,71.10
2017-08-19T09:50:53.475Z,70.80
2017-08-19T09:53:19.526Z,70.90
2017-08-19T09:55:46.300Z,73.60
2017-08-19T09:58:12.362Z,73.60
2017-08-19T10:00:38.423Z,72.70
2017-08-19T10:03:04.478Z,73.60
2017-08-19T10:05:31.589Z,73.20
2017-08-19T10:07:57.817Z,72.90
2017-08-19T10:10:36.287Z,73.60
2017-08-19T10:13:02.358Z,73.70
2017-08-19T10:15:28.710Z,72.10
2017-08-19T10:17:54.829Z,72.70
2017-08-19T10:20:20.950Z,72.20
2017-08-19T10:22:47.023Z,72.60
2017-08-19T10:25:13.863Z,71.80
2017-08-19T10:27:39.943Z,71.60
2017-08-19T10:30:06.874Z,72.50
2017-08-19T10:32:33.788Z,73.00
2017-08-19T10:35:00.599Z,73.80
2017-08-19T10:37:26.708Z,73.70
2017-08-19T10:39:52.762Z,72.60
2017-08-19T10:42:18.845Z,72.90
2017-08-19T10:44:44.907Z,71.50
2017-08-19T10:47:10.997Z,73.10
2017-08-19T10:49:37.064Z,70.20
2017-08-19T10:52:03.223Z,70.00
2017-08-19T10:54:29.327Z,70.30
2017-08-19T10:56:55.375Z,72.10
2017-08-19T10:59:21.459Z,71.20
2017-08-19T11:01:47.511Z,72.80
2017-08-19T11:04:13.549Z,72.20
2017-08-19T11:06:39.596Z,71.70
2017-08-19T11:09:05.666Z,72.40
2017-08-19T11:11:31.867Z,71.80
2017-08-19T11:13:57.972Z,73.70
2017-08-19T11:16:24.059Z,73.20
2017-08-19T11:18:50.115Z,75.20
2017-08-19T11:21:16.171Z,73.80
2017-08-19T11:23:42.223Z,73.20
2017-08-19T11:26:08.491Z,74.10
2017-08-19T11:28:34.633Z,73.70
2017-08-19T11:31:00.844Z,75.40
2017-08-19T11:33:26.960Z,74.40
2017-08-19T11:35:53.006Z,74.30
2017-08-19T11:38:20.411Z,72.60
2017-08-19T11:40:46.479Z,70.60
2017-08-19T11:43:13.295Z,70.80
2017-08-19T11:45:39.501Z,70.80
2017-08-19T11:48:05.817Z,70.30
2017-08-19T11:50:32.004Z,69.40
2017-08-19T11:52:58.099Z,68.60
2017-08-19T11:55:24.146Z,70.30
2017-08-19T11:57:50.187Z,70.90
2017-08-19T12:00:16.986Z,71.90
2017-08-19T12:02:43.018Z,71.20
2017-08-19T12:05:10.044Z,70.70
2017-08-19T12:07:36.088Z,70.50
2017-08-19T12:10:02.196Z,70.00
2017-08-19T12:12:32.497Z,69.80
2017-08-19T12:14:58.641Z,69.00
2017-08-19T12:17:24.723Z,70.10
2017-08-19T12:19:50.857Z,71.00
2017-08-19T12:22:16.935Z,71.20
2017-08-19T12:24:43.766Z,70.20
2017-08-19T12:27:09.829Z,70.30
2017-08-19T12:29:35.863Z,70.50
2017-08-19T12:32:02.127Z,71.10
2017-08-19T12:34:28.263Z,70.50
2017-08-19T12:36:54.387Z,70.30
2017-08-19T12:39:20.496Z,70.60
2017-08-19T12:41:46.583Z,69.30
2017-08-19T12:44:12.647Z,67.70
2017-08-19T12:46:38.697Z,66.20
2017-08-19T12:49:04.798Z,66.30
2017-08-19T12:51:30.941Z,66.00
2017-08-19T12:53:56.981Z,67.80
2017-08-19T12:56:23.102Z,68.30
2017-08-19T12:58:49.246Z,63.90
2017-08-19T13:01:15.343Z,60.30
2017-08-19T13:03:41.431Z,61.50
2017-08-19T13:06:07.548Z,63.90
2017-08-19T13:08:33.701Z,66.00
2017-08-19T13:11:00.036Z,60.90
2017-08-19T13:13:26.863Z,60.70
2017-08-19T13:15:52.926Z,60.70
2017-08-19T13:18:19.726Z,63.80
2017-08-19T13:20:45.832Z,63.90
2017-08-19T13:23:11.899Z,60.90
2017-08-19T13:25:37.959Z,55.70
2017-08-19T13:28:04.049Z,54.50
2017-08-19T13:30:30.114Z,54.90
2017-08-19T13:32:56.192Z,56.70
2017-08-19T13:35:22.268Z,55.10
2017-08-19T13:37:48.355Z,54.30
2017-08-19T13:40:15.163Z,48.90
2017-08-19T13:42:41.256Z,48.90
2017-08-19T13:45:07.316Z,48.00
2017-08-19T13:47:33.390Z,49.40
2017-08-19T13:49:59.452Z,51.00
2017-08-19T13:52:25.564Z,51.10
2017-08-19T13:54:51.638Z,52.90
2017-08-19T13:57:17.718Z,53.20
2017-08-19T13:59:43.785Z,53.40
2017-08-19T14:02:09.874Z,55.80
2017-08-19T14:04:35.936Z,57.20
2017-08-19T14:07:02.031Z,59.70
2017-08-19T14:09:28.094Z,60.50
2017-08-19T14:11:54.930Z,61.30
2017-08-19T14:14:20.991Z,61.20
2017-08-19T14:16:47.078Z,59.80
2017-08-19T14:19:13.145Z,58.40
2017-08-19T14:21:39.316Z,57.50
2017-08-19T14:24:05.422Z,58.20
2017-08-19T14:26:31.495Z,58.60
2017-08-19T14:28:58.298Z,58.70
2017-08-19T14:31:24.387Z,58.70
2017-08-19T14:33:50.564Z,58.40
2017-08-19T14:36:17.380Z,61.80
2017-08-19T14:38:43.447Z,61.70
2017-08-19T14:41:10.250Z,60.70
2017-08-19T14:43:36.338Z,60.60
2017-08-19T14:46:02.403Z,59.80
2017-08-19T14:48:28.482Z,60.30
2017-08-19T14:50:54.568Z,61.00
2017-08-19T14:53:20.650Z,62.10
2017-08-19T14:55:46.776Z,63.60
2017-08-19T14:58:12.862Z,59.40
2017-08-19T15:00:39.663Z,54.90
2017-08-19T15:03:05.744Z,54.80
2017-08-19T15:05:31.830Z,56.00
2017-08-19T15:07:57.929Z,57.70
2017-08-19T15:10:24.028Z,59.30
2017-08-19T15:12:50.074Z,58.20
2017-08-19T15:15:16.154Z,56.80
2017-08-19T15:17:42.954Z,57.30
2017-08-19T15:20:09.044Z,57.30
2017-08-19T15:22:35.171Z,56.70
2017-08-19T15:25:01.235Z,56.10
2017-08-19T15:27:27.293Z,54.20
2017-08-19T15:29:53.403Z,53.40
2017-08-19T15:32:19.462Z,52.70
2017-08-19T15:34:45.554Z,50.90
2017-08-19T15:37:11.631Z,51.70
2017-08-19T15:39:37.794Z,49.80
2017-08-19T15:42:03.862Z,48.20
2017-08-19T15:44:29.959Z,48.50
2017-08-19T15:46:56.023Z,51.90
2017-08-19T15:49:22.135Z,53.00
2017-08-19T15:51:48.211Z,54.20
2017-08-19T15:54:14.293Z,55.80
2017-08-19T15:56:40.353Z,57.40
2017-08-19T15:59:06.606Z,58.90
2017-08-19T16:01:32.679Z,58.10
2017-08-19T16:03:58.773Z,55.70
2017-08-19T16:06:25.578Z,53.80
2017-08-19T16:08:51.647Z,53.80
2017-08-19T16:11:18.434Z,53.20
2017-08-19T16:13:44.499Z,53.20
2017-08-19T16:16:10.560Z,54.10
2017-08-19T16:18:36.640Z,52.50
2017-08-19T16:21:02.730Z,51.70
2017-08-19T16:23:28.820Z,51.30
2017-08-19T16:25:54.894Z,50.40
2017-08-19T16:28:20.954Z,50.60
2017-08-19T16:30:47.014Z,51.60
2017-08-19T16:33:13.095Z,52.80
2017-08-19T16:35:39.150Z,52.90
2017-08-19T16:38:05.203Z,51.90
2017-08-19T16:40:31.285Z,51.80
2017-08-19T16:42:57.360Z,51.60
2017-08-19T16:45:23.439Z,51.40
2017-08-19T16:47:50.238Z,55.80
2017-08-19T16:50:16.335Z,55.70
2017-08-19T16:52:42.387Z,58.20
2017-08-19T16:55:08.454Z,59.50
2017-08-19T16:57:35.260Z,57.80
2017-08-19T17:00:01.340Z,57.90
2017-08-19T17:02:27.392Z,56.10
2017-08-19T17:04:53.466Z,54.70
2017-08-19T17:07:20.266Z,53.30
2017-08-19T17:09:46.334Z,53.20
2017-08-19T17:12:13.129Z,53.30
2017-08-19T17:14:39.199Z,53.30
2017-08-19T17:17:05.258Z,53.10
2017-08-19T17:19:31.347Z,53.40
2017-08-19T17:21:58.286Z,55.80
2017-08-19T17:24:25.091Z,55.80
2017-08-19T17:26:51.215Z,55.80
2017-08-19T17:29:17.281Z,56.50
2017-08-19T17:31:43.367Z,57.10
2017-08-19T17:34:09.429Z,56.10
2017-08-19T17:36:35.514Z,56.90
2017-08-19T17:39:01.603Z,57.40
2017-08-19T17:41:27.676Z,58.60
2017-08-19T17:43:53.758Z,59.60
2017-08-19T17:46:19.836Z,59.90
2017-08-19T17:48:45.887Z,61.30
2017-08-19T17:51:12.721Z,63.20
2017-08-19T17:53:39.548Z,63.90
2017-08-19T17:56:05.658Z,63.90
2017-08-19T17:58:31.751Z,64.80
2017-08-19T18:00:57.809Z,65.90
2017-08-19T18:03:23.911Z,66.80
2017-08-19T18:05:50.087Z,67.50
2017-08-19T18:08:16.319Z,68.60
2017-08-19T18:10:42.378Z,69.20
2017-08-19T18:13:08.470Z,70.00
2017-08-19T18:15:35.303Z,70.80
2017-08-19T18:18:01.386Z,70.70
2017-08-19T18:20:27.492Z,71.80
2017-08-19T18:22:53.566Z,71.70
2017-08-19T18:25:19.623Z,72.40
2017-08-19T18:27:45.691Z,72.80
2017-08-19T18:30:11.746Z,73.40
2017-08-19T18:32:37.831Z,73.90
2017-08-19T18:35:04.814Z,74.20
2017-08-19T18:37:30.910Z,74.80
2017-08-19T18:39:56.966Z,75.20
2017-08-19T18:42:23.099Z,75.40
2017-08-19T18:44:49.911Z,76.50
2017-08-19T18:47:15.995Z,76.50
2017-08-19T18:49:42.074Z,77.20
2017-08-19T18:52:08.155Z,77.40
2017-08-19T18:54:34.219Z,77.30
2017-08-19T18:57:00.299Z,77.80
2017-08-19T18:59:26.362Z,78.10
2017-08-19T19:01:52.426Z,78.60
2017-08-19T19:04:18.522Z,79.00
2017-08-19T19:06:44.624Z,79.30
2017-08-19T19:09:10.686Z,80.00
2017-08-19T19:11:37.498Z,80.30
2017-08-19T19:14:03.598Z,80.30
2017-08-19T19:16:29.736Z,80.00
2017-08-19T19:18:55.823Z,80.10
2017-08-19T19:21:21.898Z,78.90
2017-08-19T19:23:47.979Z,79.30
2017-08-19T19:26:14.044Z,78.30
2017-08-19T19:28:40.115Z,78.80
2017-08-19T19:31:06.916Z,78.20
2017-08-19T19:33:33.071Z,78.20
2017-08-19T19:35:59.191Z,78.30
2017-08-19T19:38:25.679Z,78.70
2017-08-19T19:40:51.745Z,78.90
2017-08-19T19:43:17.819Z,79.00
2017-08-19T19:45:43.903Z,79.60
2017-08-19T19:48:10.706Z,80.50
2017-08-19T19:50:36.794Z,80.50
2017-08-19T19:53:02.854Z,80.50
2017-08-19T19:55:30.783Z,80.90
2017-08-19T19:57:56.849Z,81.10
2017-08-19T20:00:22.949Z,81.30
2017-08-19T20:02:49.018Z,81.80
2017-08-19T20:05:15.095Z,82.20
2017-08-19T20:07:41.151Z,82.50
2017-08-19T20:10:07.231Z,82.90
2017-08-19T20:12:33.302Z,83.10
2017-08-19T20:14:59.398Z,83.60
2017-08-19T20:17:25.459Z,84.30
2017-08-19T20:19:51.542Z,84.30
2017-08-19T20:22:17.614Z,84.60
2017-08-19T20:24:43.699Z,85.00
2017-08-19T20:27:09.746Z,85.30
2017-08-19T20:29:35.818Z,85.50
2017-08-19T20:32:02.616Z,85.40
2017-08-19T20:34:28.701Z,85.30
2017-08-19T20:36:54.750Z,85.90
2017-08-19T20:39:20.826Z,85.50
2017-08-19T20:41:47.667Z,85.80
2017-08-19T20:44:13.743Z,85.80
2017-08-19T20:46:39.923Z,86.20
2017-08-19T20:49:06.734Z,86.40
2017-08-19T20:51:32.803Z,86.40
2017-08-19T20:54:00.063Z,86.50
2017-08-19T20:56:26.161Z,86.70
2017-08-19T20:58:52.958Z,87.10
2017-08-19T21:01:19.059Z,87.10
2017-08-19T21:03:45.106Z,87.10
2017-08-19T21:06:11.178Z,87.30
2017-08-19T21:08:37.983Z,86.80
2017-08-19T21:11:04.298Z,86.70
2017-08-19T21:13:30.355Z,86.60
2017-08-19T21:15:56.459Z,87.40
2017-08-19T21:18:22.542Z,87.70
2017-08-19T21:20:48.656Z,87.30
2017-08-19T21:23:14.698Z,87.40
2017-08-19T21:25:40.770Z,87.70
2017-08-19T21:28:06.836Z,87.90
2017-08-19T21:30:33.654Z,88.50
2017-08-19T21:32:59.708Z,88.40
2017-08-19T21:35:25.799Z,89.10
2017-08-19T21:37:51.858Z,89.60
2017-08-19T21:40:17.954Z,90.00
2017-08-19T21:42:44.055Z,90.10
2017-08-19T21:45:10.122Z,90.30
2017-08-19T21:47:37.037Z,90.60
2017-08-19T21:50:03.115Z,90.60
2017-08-19T21:52:29.273Z,90.90
2017-08-19T21:54:55.346Z,91.10
2017-08-19T21:57:21.438Z,91.40
2017-08-19T21:59:47.503Z,91.70
2017-08-19T22:02:13.591Z,91.80
2017-08-19T22:04:39.665Z,91.80
2017-08-19T22:07:05.757Z,91.90
2017-08-19T22:09:31.871Z,92.10
2017-08-19T22:11:58.707Z,92.00
2017-08-19T22:14:24.776Z,92.00
2017-08-19T22:16:50.872Z,92.10
2017-08-19T22:19:17.684Z,92.10
2017-08-19T22:21:43.779Z,92.10
2017-08-19T22:24:09.842Z,92.20
2017-08-19T22:26:35.939Z,92.40
2017-08-19T22:29:02.015Z,92.40
2017-08-19T22:31:28.093Z,92.50
2017-08-19T22:33:54.178Z,92.60
2017-08-19T22:36:20.259Z,92.70
2017-08-19T22:38:46.347Z,92.70
2017-08-19T22:41:12.419Z,92.90
2017-08-19T22:43:38.509Z,92.90
2017-08-19T22:46:04.582Z,93.00
2017-08-19T22:48:30.665Z,93.00
2017-08-19T22:50:56.728Z,93.00
2017-08-19T22:53:22.815Z,93.10
2017-08-19T22:55:48.907Z,93.00
2017-08-19T22:58:15.048Z,93.00
2017-08-19T23:00:41.131Z,92.80
2017-08-19T23:03:07.219Z,93.00
2017-08-19T23:05:33.300Z,93.20
2017-08-19T23:07:59.410Z,93.10
2017-08-19T23:10:26.239Z,93.20
2017-08-19T23:12:52.309Z,93.10
2017-08-19T23:15:18.410Z,93.10
2017-08-19T23:17:45.269Z,93.30
2017-08-19T23:20:11.332Z,93.20
2017-08-19T23:22:37.414Z,93.40
2017-08-19T23:25:03.491Z,93.60
2017-08-19T23:27:29.563Z,93.60
2017-08-19T23:29:55.630Z,93.60
2017-08-19T23:32:21.699Z,93.60
2017-08-19T23:34:48.527Z,93.80
2017-08-19T23:37:14.635Z,93.80
2017-08-19T23:39:40.748Z,94.10
2017-08-19T23:42:06.822Z,94.00
2017-08-19T23:44:33.638Z,94.00
2017-08-19T23:46:59.713Z,94.00
2017-08-19T23:49:25.806Z,94.10
2017-08-19T23:51:52.610Z,94.60
2017-08-19T23:54:18.702Z,94.30
2017-08-19T23:56:44.766Z,94.30
2017-08-19T23:59:10.846Z,94.40
